Time;durP1;ratioP1;P1;durP2;ratioP2;P2;SDS_P1;SDS_P2;PMS_P1;PMS_P2;Temp;Humidity;BMP_temperature;BMP_pressure;BME280_temperature;BME280_humidity;BME280_pressure;Samples;Min_cycle;Max_cycle;Signal;HPM_P1;HPM_P2
2023/01/27 00:00:51;;;;;;;8.57;2.13;;;;;;;3.87;93.85;102376.28;5031258;28;20471;-74
2023/01/27 00:03:17;;;;;;;9.05;3.20;;;;;;;3.88;93.70;102376.28;5047603;28;20040;-74
2023/01/27 00:05:44;;;;;;;8.95;2.03;;;;;;;3.90;93.30;102376.22;5049903;28;20068;-74
2023/01/27 00:08:09;;;;;;;8.55;2.28;;;;;;;3.89;92.90;102369.06;5030019;28;20033;-74
2023/01/27 00:10:35;;;;;;;13.57;2.83;;;;;;;3.87;93.36;102373.59;5031924;28;20496;-73
2023/01/27 00:15:44;;;;;;;10.60;3.20;;;;;;;3.82;93.70;102370.97;5029505;28;20033;-73
2023/01/27 00:18:09;;;;;;;7.30;2.38;;;;;;;3.76;93.21;102366.63;5029911;28;20046;-73
2023/01/27 00:26:10;;;;;;;13.40;2.13;;;;;;;3.72;93.83;102372.97;5036612;28;20068;-74
2023/01/27 00:28:39;;;;;;;11.40;4.07;;;;;;;3.71;93.67;102375.69;5035153;28;20102;-73
2023/01/27 00:31:07;;;;;;;9.90;2.92;;;;;;;3.66;94.63;102369.53;5031567;28;20090;-73
2023/01/27 00:33:33;;;;;;;7.10;2.55;;;;;;;3.64;93.59;102374.03;5032150;28;20029;-74
2023/01/27 00:36:06;;;;;;;7.90;2.33;;;;;;;3.62;93.40;102363.31;5028281;28;20087;-73
2023/01/27 00:38:39;;;;;;;11.93;2.95;;;;;;;3.62;93.60;102374.06;5029796;28;20404;-73
2023/01/27 00:41:19;;;;;;;9.95;3.03;;;;;;;3.61;93.73;102376.81;5011672;28;20025;-73
2023/01/27 00:43:49;;;;;;;8.63;2.63;;;;;;;3.57;94.27;102375.97;5029712;28;20433;-74
2023/01/27 00:46:16;;;;;;;9.55;2.65;;;;;;;3.58;94.44;102383.13;5028599;28;20045;-74
2023/01/27 00:48:42;;;;;;;13.82;2.55;;;;;;;3.54;94.50;102390.38;5029170;28;20401;-74
2023/01/27 00:51:08;;;;;;;6.60;2.55;;;;;;;3.51;94.86;102382.34;5026993;28;20037;-73
2023/01/27 00:53:34;;;;;;;11.63;2.78;;;;;;;3.48;94.81;102378.81;5029315;28;20036;-74
2023/01/27 00:55:59;;;;;;;11.02;3.47;;;;;;;3.48;95.08;102376.13;5011177;28;20029;-73
2023/01/27 00:58:26;;;;;;;10.43;3.22;;;;;;;3.43;95.10;102378.03;5029052;28;20071;-73
2023/01/27 01:00:53;;;;;;;25.10;3.20;;;;;;;3.42;94.79;102378.94;5028959;28;20044;-73
2023/01/27 01:03:19;;;;;;;13.48;3.10;;;;;;;3.40;94.68;102384.34;5027515;28;20038;-73
2023/01/27 01:05:44;;;;;;;15.43;3.38;;;;;;;3.38;95.11;102378.09;5028721;28;20485;-74
2023/01/27 01:08:09;;;;;;;7.18;2.85;;;;;;;3.33;95.56;102383.56;5028792;28;20384;-73
2023/01/27 01:10:37;;;;;;;14.57;3.65;;;;;;;3.35;95.26;102385.34;5027256;28;20464;-73
2023/01/27 01:13:03;;;;;;;9.27;2.80;;;;;;;3.35;95.17;102383.53;5029662;28;20025;-73
2023/01/27 01:15:34;;;;;;;9.50;2.80;;;;;;;3.31;95.40;102381.81;5027376;28;20029;-74
2023/01/27 01:17:59;;;;;;;8.77;2.80;;;;;;;3.33;95.87;102388.06;5027451;28;20132;-74
2023/01/27 01:20:25;;;;;;;6.97;2.85;;;;;;;3.30;95.76;102383.63;5028421;28;20112;-74
2023/01/27 01:22:50;;;;;;;16.88;4.03;;;;;;;3.29;95.81;102387.22;5026465;28;20434;-73
2023/01/27 01:25:15;;;;;;;11.48;2.97;;;;;;;3.29;95.68;102391.72;5031099;28;20075;-73
2023/01/27 01:27:43;;;;;;;8.40;3.63;;;;;;;3.26;95.87;102392.69;5010752;28;20057;-74
2023/01/27 01:30:09;;;;;;;14.57;3.47;;;;;;;3.24;96.19;102391.78;5028201;28;20041;-73
2023/01/27 01:32:35;;;;;;;9.80;3.22;;;;;;;3.24;96.39;102398.97;5027057;28;20437;-73
2023/01/27 01:35:00;;;;;;;10.80;3.22;;;;;;;3.23;96.30;102399.91;5028105;28;20443;-74
2023/01/27 01:37:25;;;;;;;12.38;3.47;;;;;;;3.25;96.18;102400.75;5028065;28;20450;-74
2023/01/27 01:39:51;;;;;;;9.23;3.60;;;;;;;3.25;95.73;102408.81;5026835;28;20029;-73
2023/01/27 01:42:16;;;;;;;8.05;3.05;;;;;;;3.21;96.22;102402.59;5028695;28;20124;-73
2023/01/27 01:44:43;;;;;;;8.93;4.00;;;;;;;3.24;95.74;102407.03;5026741;28;20091;-73
2023/01/27 01:47:15;;;;;;;12.18;3.55;;;;;;;3.20;95.73;102411.59;5026823;28;20057;-73
2023/01/27 01:49:41;;;;;;;9.93;3.53;;;;;;;3.20;95.55;102405.31;5025500;28;20484;-74
2023/01/27 01:52:15;;;;;;;11.68;3.45;;;;;;;3.22;95.18;102403.50;5027305;28;20025;-73
2023/01/27 01:54:50;;;;;;;7.05;3.80;;;;;;;3.23;94.44;102407.97;5028210;28;20029;-74
2023/01/27 01:57:20;;;;;;;12.15;3.90;;;;;;;3.22;94.06;102399.00;5028722;28;20561;-74
2023/01/27 01:59:52;;;;;;;10.63;3.28;;;;;;;3.25;93.25;102422.25;5027209;28;20120;-74
2023/01/27 02:02:21;;;;;;;12.33;3.63;;;;;;;3.23;92.86;102405.28;5027829;28;20037;-74
2023/01/27 02:04:51;;;;;;;9.63;3.72;;;;;;;3.27;92.83;102423.16;5027843;28;20041;-74
2023/01/27 02:07:24;;;;;;;11.32;4.10;;;;;;;3.24;92.75;102416.00;5026633;28;20047;-74
2023/01/27 02:09:50;;;;;;;7.88;3.63;;;;;;;3.19;93.23;102406.25;5027808;28;20040;-73
2023/01/27 02:12:15;;;;;;;9.57;3.80;;;;;;;3.19;93.15;102414.31;5028098;28;20030;-74
2023/01/27 02:14:41;;;;;;;8.38;3.63;;;;;;;3.15;93.81;102410.78;5027560;28;20124;-74
2023/01/27 02:17:08;;;;;;;13.75;3.90;;;;;;;3.12;94.41;102408.13;5010041;28;20468;-73
2023/01/27 02:20:15;;;;;;;14.75;4.53;;;;;;;3.14;94.59;102410.81;5027090;28;20498;-74
2023/01/27 02:22:58;;;;;;;8.30;3.40;;;;;;;3.13;94.48;102409.94;4988187;28;20551;-73
2023/01/27 02:25:35;;;;;;;11.25;3.80;;;;;;;3.10;94.53;102415.34;5017761;28;20520;-73
2023/01/27 02:28:03;;;;;;;9.38;3.05;;;;;;;3.10;94.12;102415.34;5031755;28;20044;-73
2023/01/27 02:30:30;;;;;;;9.02;3.83;;;;;;;3.11;94.62;102413.53;5027585;28;20033;-73
2023/01/27 02:32:56;;;;;;;9.82;4.05;;;;;;;3.08;94.40;102417.19;5026086;28;20025;-73
2023/01/27 02:35:32;;;;;;;13.30;4.32;;;;;;;3.11;94.70;102419.81;5027259;28;20401;-74
2023/01/27 02:37:58;;;;;;;10.30;4.30;;;;;;;3.07;94.57;102416.25;5026029;28;20044;-73
2023/01/27 02:40:24;;;;;;;8.20;3.47;;;;;;;3.09;94.46;102424.31;5025588;28;20033;-73
2023/01/27 02:42:54;;;;;;;12.32;3.92;;;;;;;3.08;95.04;102422.56;5025821;28;20045;-75
2023/01/27 02:45:19;;;;;;;14.77;4.47;;;;;;;3.05;95.75;102423.47;5046916;28;20472;-74
2023/01/27 02:47:46;;;;;;;14.50;4.30;;;;;;;3.02;95.87;102426.22;5046589;28;20059;-74
2023/01/27 02:50:11;;;;;;;8.43;3.63;;;;;;;3.04;95.64;102426.22;5027208;28;20030;-74
2023/01/27 02:52:37;;;;;;;11.27;4.32;;;;;;;3.04;95.69;102432.47;5028191;28;20029;-75
2023/01/27 02:55:03;;;;;;;9.85;4.13;;;;;;;3.02;95.79;102426.22;5042569;28;20112;-73
2023/01/27 02:57:28;;;;;;;13.80;5.00;;;;;;;3.01;96.24;102423.56;5025760;28;20041;-73
2023/01/27 03:00:14;;;;;;;12.38;4.63;;;;;;;3.00;96.14;102419.09;5045937;28;20505;-73
2023/01/27 03:02:40;;;;;;;10.75;4.45;;;;;;;2.96;96.24;102429.00;5046031;28;20143;-74
2023/01/27 03:05:05;;;;;;;10.30;4.65;;;;;;;2.95;96.21;102424.53;5036366;28;20024;-73
2023/01/27 03:07:30;;;;;;;17.33;4.30;;;;;;;2.95;97.21;102432.59;5025536;28;20095;-73
2023/01/27 03:09:56;;;;;;;15.70;5.35;;;;;;;2.94;96.22;102429.94;5029601;28;20036;-73
2023/01/27 03:12:21;;;;;;;14.27;5.20;;;;;;;2.91;96.44;102430.88;5026721;28;20120;-74
2023/01/27 03:20:17;;;;;;;13.73;5.25;;;;;;;2.92;96.09;102432.66;5031733;28;20115;-75
2023/01/27 03:22:43;;;;;;;15.20;5.38;;;;;;;2.92;95.72;102432.66;5027104;28;20037;-73
2023/01/27 03:25:11;;;;;;;9.15;5.55;;;;;;;2.89;96.80;102432.72;5009622;28;20064;-73
2023/01/27 03:27:36;;;;;;;14.50;5.63;;;;;;;2.92;96.50;102435.34;5025283;28;20072;-74
2023/01/27 03:30:22;;;;;;;17.25;6.28;;;;;;;2.87;96.93;102433.63;5046509;28;20128;-74
2023/01/27 03:32:57;;;;;;;16.90;5.78;;;;;;;2.87;96.34;102431.81;5034525;28;20095;-74
2023/01/27 03:35:46;;;;;;;16.95;5.78;;;;;;;2.86;96.92;102440.81;5029599;28;20052;-74
2023/01/27 03:46:33;;;;;;;17.25;5.32;;;;;;;2.86;97.38;102456.06;5029029;28;20044;-74
2023/01/27 03:48:58;;;;;;;12.68;5.70;;;;;;;2.88;97.14;102451.53;5030087;28;20042;-74
2023/01/27 03:51:25;;;;;;;17.40;6.00;;;;;;;2.86;97.63;102451.56;5028796;28;20041;-74
2023/01/27 03:53:52;;;;;;;17.90;6.63;;;;;;;2.89;97.45;102459.59;5030383;28;20505;-73
2023/01/27 03:56:19;;;;;;;18.10;6.93;;;;;;;2.85;97.87;102456.97;5032918;28;20041;-73
2023/01/27 03:58:44;;;;;;;12.00;5.88;;;;;;;2.83;98.32;102467.72;5036808;28;20048;-73
2023/01/27 04:01:14;;;;;;;16.02;6.25;;;;;;;2.81;98.71;102467.75;5050115;28;20436;-73
2023/01/27 04:09:17;;;;;;;14.80;5.30;;;;;;;2.79;99.04;102464.19;5030251;28;20057;-73
2023/01/27 04:11:54;;;;;;;18.35;6.40;;;;;;;2.88;98.36;102462.28;5039688;28;20049;-73
2023/01/27 04:14:32;;;;;;;15.40;6.82;;;;;;;2.85;99.19;102457.84;5036920;28;20051;-74
2023/01/27 04:17:01;;;;;;;16.15;6.32;;;;;;;2.80;99.55;102457.91;5029951;28;20079;-74
2023/01/27 04:19:27;;;;;;;18.08;6.85;;;;;;;2.85;99.27;102463.22;5033496;28;20112;-75
2023/01/27 04:21:53;;;;;;;15.60;6.57;;;;;;;2.83;99.91;102450.72;5049488;28;20125;-73
2023/01/27 04:24:24;;;;;;;17.70;7.15;;;;;;;2.83;99.62;102456.09;5049382;28;20115;-74
2023/01/27 04:27:11;;;;;;;19.42;6.13;;;;;;;2.86;99.23;102456.94;5043847;28;20036;-74
2023/01/27 04:29:40;;;;;;;23.63;7.13;;;;;;;2.87;99.06;102452.44;5034111;28;20504;-74
2023/01/27 04:32:08;;;;;;;19.88;7.25;;;;;;;2.84;99.74;102468.59;5029354;28;20057;-73
2023/01/27 04:34:34;;;;;;;21.70;8.40;;;;;;;2.83;99.36;102453.41;5028072;28;20044;-74
2023/01/27 04:37:02;;;;;;;16.42;7.65;;;;;;;2.87;99.04;102473.94;5027883;28;20444;-74
2023/01/27 04:39:27;;;;;;;16.00;7.13;;;;;;;2.86;99.11;102470.38;5028661;28;20052;-74
2023/01/27 04:41:52;;;;;;;22.25;7.97;;;;;;;2.86;98.78;102472.19;5029193;28;20021;-74
2023/01/27 04:44:19;;;;;;;14.85;5.97;;;;;;;2.89;98.52;102477.47;5011474;28;20030;-74
2023/01/27 04:46:44;;;;;;;24.10;8.13;;;;;;;2.83;98.48;102474.91;5028459;28;20061;-74
2023/01/27 04:49:10;;;;;;;17.55;8.10;;;;;;;2.91;97.74;102470.31;5028968;28;20513;-73
2023/01/27 04:51:35;;;;;;;20.48;8.13;;;;;;;2.87;97.40;102479.31;5035379;28;20032;-74
2023/01/27 04:54:02;;;;;;;16.33;7.68;;;;;;;2.86;98.15;102475.75;5049241;28;20047;-73
2023/01/27 04:56:34;;;;;;;18.98;8.45;;;;;;;2.86;98.30;102480.25;5029394;28;20037;-74
2023/01/27 04:59:01;;;;;;;16.77;8.05;;;;;;;2.90;97.69;102477.47;5029091;28;20042;-73
2023/01/27 05:01:27;;;;;;;17.80;7.88;;;;;;;2.90;97.81;102482.88;5029217;28;20306;-73
2023/01/27 05:03:53;;;;;;;18.02;9.25;;;;;;;2.91;97.34;102491.81;5028275;28;20038;-75
2023/01/27 05:06:19;;;;;;;17.92;7.60;;;;;;;2.92;97.80;102491.78;5028797;28;20113;-74
2023/01/27 05:08:44;;;;;;;19.40;8.57;;;;;;;2.95;97.43;102496.25;5040970;28;20025;-74
2023/01/27 05:11:10;;;;;;;18.33;7.80;;;;;;;2.89;97.99;102497.22;5042752;28;20441;-73
2023/01/27 05:13:36;;;;;;;18.98;8.68;;;;;;;2.89;98.63;102505.28;5041525;28;20033;-75
2023/01/27 05:16:07;;;;;;;18.27;8.40;;;;;;;2.84;98.38;102495.47;5028717;28;20033;-73
2023/01/27 05:18:32;;;;;;;16.73;7.72;;;;;;;2.86;97.32;102502.63;5029026;28;20049;-73
2023/01/27 05:21:00;;;;;;;21.35;8.50;;;;;;;2.88;97.32;102502.59;5026460;28;20552;-75
2023/01/27 05:23:34;;;;;;;17.20;7.57;;;;;;;2.84;97.91;102504.44;5028776;28;20076;-74
2023/01/27 05:26:22;;;;;;;23.75;8.60;;;;;;;2.87;97.85;102506.19;5031807;28;20396;-74
2023/01/27 05:28:49;;;;;;;18.35;7.07;;;;;;;2.82;98.15;102503.56;5028963;28;20071;-75
2023/01/27 05:31:17;;;;;;;13.73;7.20;;;;;;;2.85;97.17;102508.91;5028864;28;20096;-73
2023/01/27 05:33:43;;;;;;;17.25;7.25;;;;;;;2.86;96.69;102508.00;5044599;28;20035;-73
2023/01/27 05:36:12;;;;;;;17.38;7.60;;;;;;;2.87;96.83;102517.84;5047432;28;20051;-74
2023/01/27 05:38:38;;;;;;;18.58;7.00;;;;;;;2.91;96.64;102521.38;5047665;28;20163;-74
2023/01/27 05:41:06;;;;;;;15.55;7.65;;;;;;;2.91;95.46;102516.00;5036922;28;20041;-73
2023/01/27 05:43:33;;;;;;;17.55;7.60;;;;;;;2.96;95.01;102519.50;5028163;28;20531;-74
2023/01/27 05:46:04;;;;;;;14.23;6.85;;;;;;;2.94;95.52;102535.69;5027860;28;20424;-73
2023/01/27 05:48:30;;;;;;;16.38;6.95;;;;;;;2.97;95.16;102515.91;5027030;28;20558;-74
2023/01/27 05:50:57;;;;;;;13.10;6.53;;;;;;;2.97;94.85;102530.22;5027370;28;20296;-74
2023/01/27 05:53:23;;;;;;;22.40;6.90;;;;;;;2.95;95.12;102518.63;5046338;28;20480;-73
2023/01/27 05:55:50;;;;;;;15.40;6.75;;;;;;;2.96;95.13;102524.88;5038970;28;20044;-73
2023/01/27 05:58:16;;;;;;;15.70;7.78;;;;;;;3.00;94.66;102519.44;5027049;28;20037;-73
2023/01/27 06:00:41;;;;;;;16.23;6.70;;;;;;;2.97;95.45;102527.53;5026664;28;20037;-73
2023/01/27 06:03:07;;;;;;;13.73;6.80;;;;;;;2.98;95.47;102536.50;5027855;28;20037;-74
2023/01/27 06:05:32;;;;;;;15.13;7.10;;;;;;;2.96;95.80;102528.47;5027645;28;20033;-73
2023/01/27 06:07:57;;;;;;;15.52;7.75;;;;;;;2.96;95.95;102536.53;5026415;28;20098;-74
2023/01/27 06:10:23;;;;;;;15.80;7.68;;;;;;;2.97;95.51;102532.91;5027666;28;20025;-73
2023/01/27 06:12:48;;;;;;;13.75;6.65;;;;;;;2.96;95.85;102536.53;5047323;28;20037;-74
2023/01/27 06:15:13;;;;;;;16.50;8.02;;;;;;;2.97;95.97;102532.91;5028709;28;20047;-73
2023/01/27 06:17:39;;;;;;;15.45;8.15;;;;;;;2.94;95.99;102534.78;5010134;28;20124;-73
2023/01/27 06:20:05;;;;;;;17.85;7.68;;;;;;;2.96;95.75;102541.91;5017054;28;20061;-73
2023/01/27 06:22:30;;;;;;;15.77;7.47;;;;;;;2.97;96.30;102546.38;5027256;28;20457;-73
2023/01/27 06:24:55;;;;;;;15.80;7.38;;;;;;;2.95;96.00;102545.50;5027606;28;20129;-73
2023/01/27 06:27:21;;;;;;;13.15;7.00;;;;;;;2.95;96.19;102548.19;5009746;28;20033;-74
2023/01/27 06:29:46;;;;;;;14.95;6.78;;;;;;;2.96;96.09;102549.09;5028034;28;20037;-73
2023/01/27 06:32:11;;;;;;;16.65;7.50;;;;;;;2.98;95.47;102544.56;5009484;28;20043;-73
2023/01/27 06:34:37;;;;;;;17.00;7.43;;;;;;;2.98;95.79;102548.13;5027086;28;20079;-75
2023/01/27 06:37:02;;;;;;;11.70;6.30;;;;;;;2.99;95.54;102547.25;5027046;28;20042;-73
2023/01/27 06:39:27;;;;;;;14.68;7.05;;;;;;;3.00;96.01;102557.09;5026215;28;20049;-73
2023/01/27 06:41:52;;;;;;;17.05;6.95;;;;;;;3.00;95.54;102553.50;5037578;28;20044;-74
2023/01/27 06:44:18;;;;;;;20.55;7.28;;;;;;;3.00;95.88;102549.03;5036150;28;20053;-74
2023/01/27 06:46:43;;;;;;;14.60;7.15;;;;;;;3.00;95.87;102553.50;5026557;28;20045;-73
2023/01/27 06:49:09;;;;;;;13.20;7.13;;;;;;;2.99;95.20;102549.06;5025239;28;20044;-74
2023/01/27 06:51:34;;;;;;;13.60;7.45;;;;;;;3.02;95.10;102551.69;5025605;28;20551;-73
2023/01/27 06:53:59;;;;;;;12.90;6.30;;;;;;;3.03;95.49;102554.38;5039492;28;20037;-73
2023/01/27 06:56:25;;;;;;;17.05;6.75;;;;;;;3.04;95.13;102553.44;5032214;28;20069;-73
2023/01/27 06:58:50;;;;;;;12.70;6.60;;;;;;;3.02;95.07;102555.25;5027231;28;20041;-73
2023/01/27 07:01:16;;;;;;;12.82;6.07;;;;;;;3.02;95.00;102560.63;5027748;28;20460;-73
2023/01/27 07:03:42;;;;;;;11.82;6.10;;;;;;;3.02;94.85;102555.25;5025710;28;20043;-75
2023/01/27 07:06:09;;;;;;;16.17;6.22;;;;;;;3.03;94.70;102553.44;5026396;28;20623;-74
2023/01/27 07:08:35;;;;;;;11.05;5.50;;;;;;;3.01;95.06;102558.84;5028251;28;20095;-73
2023/01/27 07:11:03;;;;;;;11.02;5.60;;;;;;;3.01;94.77;102558.84;5033540;28;20033;-73
2023/01/27 07:13:28;;;;;;;8.60;5.18;;;;;;;3.00;94.85;102551.72;5031405;28;20030;-73
2023/01/27 07:15:55;;;;;;;9.25;5.35;;;;;;;3.04;93.89;102552.56;5029672;28;20048;-73
2023/01/27 07:18:20;;;;;;;9.00;5.43;;;;;;;3.05;93.54;102552.53;5044276;28;20139;-73
2023/01/27 07:20:46;;;;;;;10.35;4.82;;;;;;;3.05;93.84;102547.16;5036200;28;20042;-74
2023/01/27 07:23:12;;;;;;;8.63;4.63;;;;;;;3.07;93.71;102553.38;5029506;28;20030;-73
2023/01/27 07:25:38;;;;;;;8.57;4.57;;;;;;;3.11;93.03;102564.09;5035001;28;20429;-74
2023/01/27 07:28:04;;;;;;;7.35;4.05;;;;;;;3.12;92.86;102564.06;5029487;28;20033;-74
2023/01/27 07:30:30;;;;;;;9.43;4.47;;;;;;;3.15;93.22;102564.03;5029220;28;20123;-73
2023/01/27 07:33:08;;;;;;;7.28;4.38;;;;;;;3.17;92.85;102564.94;5030650;28;20037;-73
2023/01/27 07:35:35;;;;;;;7.53;4.50;;;;;;;3.19;92.37;102567.59;5030169;28;20043;-74
2023/01/27 07:38:01;;;;;;;8.48;4.80;;;;;;;3.19;92.49;102575.66;5032726;28;20049;-74
2023/01/27 07:40:26;;;;;;;7.93;4.65;;;;;;;3.19;92.94;102572.97;5045451;28;20082;-74
2023/01/27 07:42:51;;;;;;;9.10;4.55;;;;;;;3.18;92.85;102573.88;5030591;28;20496;-73
2023/01/27 07:45:17;;;;;;;8.30;4.03;;;;;;;3.20;92.98;102572.94;5029714;28;20052;-74
2023/01/27 07:47:42;;;;;;;7.05;4.82;;;;;;;3.20;92.71;102575.63;5012456;28;20045;-73
2023/01/27 07:50:08;;;;;;;7.55;4.40;;;;;;;3.20;93.31;102582.81;5030018;28;20057;-73
2023/01/27 07:52:33;;;;;;;6.90;4.15;;;;;;;3.21;92.71;102585.47;5028490;28;20029;-73
2023/01/27 07:54:59;;;;;;;9.18;4.70;;;;;;;3.22;92.89;102587.28;5030164;28;20038;-75
2023/01/27 07:57:24;;;;;;;7.32;4.50;;;;;;;3.23;92.24;102582.78;5030272;28;20045;-73
2023/01/27 07:59:54;;;;;;;8.15;4.68;;;;;;;3.26;93.45;102582.72;5030034;28;20480;-74
2023/01/27 08:02:21;;;;;;;9.02;4.07;;;;;;;3.25;92.63;102589.91;5028911;28;20064;-73
2023/01/27 08:04:49;;;;;;;9.23;5.10;;;;;;;3.27;92.96;102587.22;5028801;28;20457;-74
2023/01/27 08:07:16;;;;;;;8.25;4.38;;;;;;;3.27;92.25;102595.28;5028613;28;20041;-73
2023/01/27 08:09:41;;;;;;;8.10;4.68;;;;;;;3.28;92.52;102583.59;5030181;28;20044;-74
2023/01/27 08:12:07;;;;;;;8.60;4.88;;;;;;;3.28;92.27;102586.28;5029378;28;20412;-73
2023/01/27 08:14:32;;;;;;;9.05;4.70;;;;;;;3.28;92.92;102588.97;5029664;28;20112;-74
2023/01/27 08:16:58;;;;;;;7.85;4.70;;;;;;;3.28;93.02;102591.66;5029991;28;20060;-74
2023/01/27 08:19:23;;;;;;;8.88;4.72;;;;;;;3.32;92.16;102586.22;5028937;28;20048;-73
2023/01/27 08:21:48;;;;;;;7.40;4.40;;;;;;;3.31;92.46;102588.91;5029208;28;20048;-74
2023/01/27 08:24:14;;;;;;;7.32;4.32;;;;;;;3.30;92.65;102597.91;5030330;28;20033;-73
2023/01/27 08:26:39;;;;;;;8.15;4.20;;;;;;;3.31;92.45;102611.34;5031156;28;20425;-74
2023/01/27 08:29:04;;;;;;;7.47;4.25;;;;;;;3.32;92.70;102606.84;5036919;28;20158;-74
2023/01/27 08:31:30;;;;;;;7.88;4.25;;;;;;;3.34;92.53;102602.31;5048742;28;20215;-73
2023/01/27 08:33:55;;;;;;;7.22;4.25;;;;;;;3.36;92.12;102604.97;5029754;28;20022;-74
2023/01/27 08:36:23;;;;;;;14.15;6.05;;;;;;;3.33;93.13;102598.75;5029157;28;20049;-74
2023/01/27 08:38:49;;;;;;;8.75;4.75;;;;;;;3.35;92.37;102609.47;5028280;28;20045;-74
2023/01/27 08:41:18;;;;;;;12.38;5.30;;;;;;;3.33;92.99;102606.81;5035752;28;20032;-73
2023/01/27 08:43:44;;;;;;;9.15;4.75;;;;;;;3.34;93.11;102610.41;5043725;28;20079;-74
2023/01/27 08:46:10;;;;;;;11.50;5.18;;;;;;;3.37;92.64;102614.88;5029389;28;20469;-73
2023/01/27 08:48:36;;;;;;;7.63;4.22;;;;;;;3.36;92.85;102613.97;5029102;28;20052;-73
2023/01/27 08:51:02;;;;;;;6.20;3.85;;;;;;;3.39;92.83;102623.78;5028063;28;20034;-73
2023/01/27 08:53:29;;;;;;;6.95;4.45;;;;;;;3.39;93.57;102619.28;5029478;28;20531;-73
2023/01/27 08:56:01;;;;;;;6.70;4.60;;;;;;;3.41;92.95;102621.97;5032195;28;20484;-74
2023/01/27 08:58:26;;;;;;;7.22;4.47;;;;;;;3.40;92.76;102630.94;5029141;28;20151;-74
2023/01/27 09:00:52;;;;;;;10.20;4.75;;;;;;;3.41;93.42;102638.13;5029019;28;20067;-74
2023/01/27 09:03:17;;;;;;;7.57;4.53;;;;;;;3.45;92.54;102642.53;5027787;28;20033;-75
2023/01/27 09:05:43;;;;;;;9.43;5.25;;;;;;;3.41;92.73;102646.19;5027471;28;20037;-72
2023/01/27 09:08:08;;;;;;;7.18;4.00;;;;;;;3.39;92.54;102643.50;5029000;28;20033;-73
2023/01/27 09:10:40;;;;;;;6.72;4.20;;;;;;;3.42;93.65;102645.28;5027498;28;20071;-73
2023/01/27 09:13:07;;;;;;;5.90;4.07;;;;;;;3.42;91.94;102646.16;5028872;28;20029;-73
2023/01/27 09:15:34;;;;;;;8.02;5.28;;;;;;;3.43;91.76;102644.34;5028830;28;20029;-73
2023/01/27 09:18:00;;;;;;;7.13;5.15;;;;;;;3.40;91.91;102639.91;5028586;28;20033;-73
2023/01/27 09:20:25;;;;;;;9.48;4.35;;;;;;;3.44;92.15;102644.31;5027275;28;20044;-74
2023/01/27 09:22:54;;;;;;;10.73;4.53;;;;;;;3.48;92.07;102645.19;5028318;28;20481;-73
2023/01/27 09:25:19;;;;;;;6.55;3.65;;;;;;;3.49;91.53;102642.47;5028357;28;20476;-73
2023/01/27 09:27:45;;;;;;;5.15;3.67;;;;;;;3.49;91.32;102637.06;5029016;28;20049;-74
2023/01/27 09:30:11;;;;;;;6.22;3.83;;;;;;;3.54;91.86;102650.47;5028380;28;20502;-73
2023/01/27 09:32:37;;;;;;;6.68;4.22;;;;;;;3.60;91.44;102657.59;5030882;28;20935;-74
2023/01/27 09:35:03;;;;;;;7.10;3.90;;;;;;;3.64;90.18;102651.22;5026802;28;20026;-74
2023/01/27 09:37:31;;;;;;;4.55;3.40;;;;;;;3.63;89.61;102652.13;5027967;28;20046;-73
2023/01/27 09:40:08;;;;;;;6.05;3.58;;;;;;;3.65;90.03;102656.59;5028036;28;20041;-74
2023/01/27 09:43:12;;;;;;;6.55;3.85;;;;;;;3.68;90.67;102661.91;5028170;28;20038;-72
2023/01/27 09:45:55;;;;;;;6.03;3.65;;;;;;;3.70;90.21;102670.00;5028132;28;20516;-74
2023/01/27 09:48:59;;;;;;;5.22;3.30;;;;;;;3.74;89.21;102666.34;5027958;28;20057;-72
2023/01/27 09:51:46;;;;;;;4.43;2.45;;;;;;;3.72;88.76;102666.34;5027324;28;20037;-73
2023/01/27 09:54:19;;;;;;;8.43;4.05;;;;;;;3.66;89.46;102663.75;5027865;28;20040;-74
2023/01/27 09:57:11;;;;;;;7.57;4.28;;;;;;;3.67;89.14;102675.41;5028511;28;20033;-74
2023/01/27 09:59:48;;;;;;;5.82;3.05;;;;;;;3.64;89.25;102679.06;5027884;28;20156;-73
2023/01/27 10:02:34;;;;;;;7.95;3.90;;;;;;;3.62;88.91;102683.53;5028359;28;20047;-74
2023/01/27 10:05:27;;;;;;;4.47;3.00;;;;;;;3.60;89.18;102682.69;5027728;28;20069;-73
2023/01/27 10:08:27;;;;;;;4.93;3.08;;;;;;;3.54;89.75;102674.69;5027505;28;20029;-73
2023/01/27 10:11:17;;;;;;;6.03;3.58;;;;;;;3.54;89.18;102678.28;5030686;28;20447;-73
2023/01/27 10:14:26;;;;;;;4.88;3.33;;;;;;;3.54;89.62;102677.38;5032586;28;20028;-73
2023/01/27 10:16:57;;;;;;;7.72;3.65;;;;;;;3.51;89.65;102674.75;5047707;28;20044;-73
2023/01/27 10:19:49;;;;;;;5.97;4.03;;;;;;;3.53;89.95;102680.97;5047310;28;20032;-73
2023/01/27 10:22:41;;;;;;;5.15;3.25;;;;;;;3.56;89.94;102672.88;5046065;28;20493;-73
2023/01/27 10:25:34;;;;;;;6.28;3.50;;;;;;;3.61;90.75;102668.31;5027915;28;20633;-73
2023/01/27 10:28:10;;;;;;;5.03;3.38;;;;;;;3.68;89.70;102664.59;5047375;28;20041;-74
2023/01/27 10:30:37;;;;;;;5.40;3.05;;;;;;;3.70;88.86;102668.19;5030151;28;20044;-73
2023/01/27 10:33:16;;;;;;;4.82;3.33;;;;;;;3.77;89.08;102666.28;5035105;28;20044;-73
2023/01/27 10:35:52;;;;;;;7.05;4.00;;;;;;;3.80;88.90;102667.13;5026855;28;20080;-73
2023/01/27 10:38:25;;;;;;;7.70;3.75;;;;;;;3.81;88.96;102660.81;5026146;28;20053;-74
2023/01/27 10:40:57;;;;;;;6.97;4.38;;;;;;;3.90;89.49;102673.25;5029476;28;20037;-73
2023/01/27 10:43:34;;;;;;;5.50;3.72;;;;;;;3.97;88.43;102660.63;5043888;28;20048;-73
2023/01/27 10:46:34;;;;;;;6.05;3.78;;;;;;;3.96;88.22;102665.09;5027429;28;20502;-74
2023/01/27 10:49:09;;;;;;;7.18;5.03;;;;;;;3.89;87.91;102665.22;5027081;28;20072;-73
2023/01/27 10:51:45;;;;;;;6.25;3.75;;;;;;;3.94;89.07;102666.91;5027020;28;20435;-72
2023/01/27 10:54:17;;;;;;;7.90;3.60;;;;;;;3.91;87.86;102671.47;5027044;28;20141;-74
2023/01/27 10:56:54;;;;;;;6.20;3.58;;;;;;;3.88;88.36;102661.66;5027947;28;20079;-73
2023/01/27 10:59:54;;;;;;;5.53;3.63;;;;;;;3.97;88.23;102682.16;5027000;28;20040;-72
2023/01/27 11:02:32;;;;;;;6.40;3.97;;;;;;;3.86;88.72;102657.19;5026985;28;20036;-73
2023/01/27 11:05:01;;;;;;;7.63;3.78;;;;;;;3.91;89.27;102656.19;5026893;28;20045;-73
2023/01/27 11:07:29;;;;;;;5.22;3.25;;;;;;;4.00;88.13;102674.00;5026500;28;20158;-74
2023/01/27 11:09:58;;;;;;;6.43;4.00;;;;;;;3.93;87.78;102673.22;5026104;28;20349;-72
2023/01/27 11:12:42;;;;;;;6.05;3.10;;;;;;;3.94;88.19;102666.03;5025885;28;20120;-73
2023/01/27 11:15:27;;;;;;;5.35;3.30;;;;;;;3.84;88.64;102657.22;5043038;28;20045;-73
2023/01/27 11:18:17;;;;;;;5.63;3.53;;;;;;;3.83;87.94;102660.81;5046818;28;20452;-73
2023/01/27 11:20:51;;;;;;;5.82;3.78;;;;;;;3.75;88.66;102668.13;5041482;28;20030;-73
2023/01/27 11:23:19;;;;;;;4.85;3.47;;;;;;;3.75;88.44;102658.25;5027898;28;20550;-73
2023/01/27 11:26:04;;;;;;;5.57;4.18;;;;;;;3.67;89.10;102660.16;5026386;28;20536;-73
2023/01/27 11:28:40;;;;;;;8.48;3.95;;;;;;;3.66;88.65;102649.41;5029288;28;20119;-74
2023/01/27 11:31:36;;;;;;;5.18;3.20;;;;;;;3.67;88.40;102654.75;5036569;28;20581;-73
2023/01/27 11:34:18;;;;;;;5.80;3.13;;;;;;;3.62;89.69;102659.31;5026533;28;20142;-72
2023/01/27 11:36:44;;;;;;;5.18;3.50;;;;;;;3.62;89.92;102655.75;5027263;28;20044;-73
2023/01/27 11:39:10;;;;;;;5.78;3.50;;;;;;;3.64;89.18;102657.53;5027323;28;20136;-73
2023/01/27 11:41:40;;;;;;;6.65;3.65;;;;;;;3.67;89.92;102661.94;5029727;28;20125;-73
2023/01/27 11:44:16;;;;;;;7.10;3.90;;;;;;;3.71;89.23;102653.81;5034089;28;20021;-73
2023/01/27 11:46:43;;;;;;;6.78;4.25;;;;;;;3.79;89.75;102640.25;5046437;28;20151;-73
2023/01/27 11:49:09;;;;;;;6.15;3.90;;;;;;;3.84;89.07;102643.75;5046119;28;20122;-73
2023/01/27 11:51:39;;;;;;;7.13;4.10;;;;;;;3.91;88.79;102639.16;5046107;28;20036;-72
2023/01/27 11:54:16;;;;;;;6.90;3.80;;;;;;;3.95;89.56;102635.50;5032156;28;20065;-74
2023/01/27 11:56:46;;;;;;;7.63;4.07;;;;;;;4.04;89.20;102646.13;5033016;28;20065;-73
2023/01/27 11:59:33;;;;;;;7.40;4.65;;;;;;;4.06;89.20;102637.13;5030204;28;20033;-74
2023/01/27 12:02:18;;;;;;;5.53;3.42;;;;;;;4.14;88.50;102641.47;5029143;28;20068;-73
2023/01/27 12:05:17;;;;;;;6.10;3.80;;;;;;;4.09;87.74;102642.44;5028959;28;20068;-73
2023/01/27 12:07:56;;;;;;;7.47;4.15;;;;;;;4.02;89.04;102634.50;5029756;28;20073;-73
2023/01/27 12:10:42;;;;;;;5.80;3.67;;;;;;;4.05;86.96;102635.31;5030057;28;21689;-73